sensor_id;sensor_type;location;lat;lon;timestamp;temperature;humidity
15036;DHT22;7615;48.574;13.474;2023-08-01T00:04:27;17.90;99.90
15036;DHT22;7615;48.574;13.474;2023-08-01T00:06:55;17.90;99.90
15036;DHT22;7615;48.574;13.474;2023-08-01T00:09:22;17.90;99.90
15036;DHT22;7615;48.574;13.474;2023-08-01T00:11:49;18.00;99.90
15036;DHT22;7615;48.574;13.474;2023-08-01T00:14:16;18.10;99.90
15036;DHT22;7615;48.574;13.474;2023-08-01T00:16:43;18.10;99.90
15036;DHT22;7615;48.574;13.474;2023-08-01T00:19:09;18.20;99.90
15036;DHT22;7615;48.574;13.474;2023-08-01T00:21:37;18.10;99.90
15036;DHT22;7615;48.574;13.474;2023-08-01T00:24:06;18.10;99.90
15036;DHT22;7615;48.574;13.474;2023-08-01T00:26:33;18.00;99.90
15036;DHT22;7615;48.574;13.474;2023-08-01T00:29:00;18.00;99.90
15036;DHT22;7615;48.574;13.474;2023-08-01T00:31:27;18.10;99.90
15036;DHT22;7615;48.574;13.474;2023-08-01T00:33:54;18.00;99.90
15036;DHT22;7615;48.574;13.474;2023-08-01T00:36:21;18.00;99.90
15036;DHT22;7615;48.574;13.474;2023-08-01T00:38:47;17.90;99.90
15036;DHT22;7615;48.574;13.474;2023-08-01T00:41:16;17.90;99.90
15036;DHT22;7615;48.574;13.474;2023-08-01T00:43:42;17.80;99.90
15036;DHT22;7615;48.574;13.474;2023-08-01T00:46:10;17.80;99.90
15036;DHT22;7615;48.574;13.474;2023-08-01T00:48:36;17.80;99.90
15036;DHT22;7615;48.574;13.474;2023-08-01T00:51:05;17.70;99.90
15036;DHT22;7615;48.574;13.474;2023-08-01T00:53:32;17.50;99.90
15036;DHT22;7615;48.574;13.474;2023-08-01T00:56:00;17.50;99.90
15036;DHT22;7615;48.574;13.474;2023-08-01T00:58:28;17.40;99.90
15036;DHT22;7615;48.574;13.474;2023-08-01T01:00:55;17.50;99.90
15036;DHT22;7615;48.574;13.474;2023-08-01T01:03:23;17.60;99.90
15036;DHT22;7615;48.574;13.474;2023-08-01T01:05:55;17.60;99.90
15036;DHT22;7615;48.574;13.474;2023-08-01T01:08:23;17.60;99.90
15036;DHT22;7615;48.574;13.474;2023-08-01T01:10:50;17.70;99.90
15036;DHT22;7615;48.574;13.474;2023-08-01T01:13:17;17.70;99.90
15036;DHT22;7615;48.574;13.474;2023-08-01T01:15:45;17.70;99.90
15036;DHT22;7615;48.574;13.474;2023-08-01T01:18:11;17.60;99.90
15036;DHT22;7615;48.574;13.474;2023-08-01T01:20:40;17.50;99.90
15036;DHT22;7615;48.574;13.474;2023-08-01T01:23:08;17.50;99.90
15036;DHT22;7615;48.574;13.474;2023-08-01T01:25:36;17.50;99.90
15036;DHT22;7615;48.574;13.474;2023-08-01T01:28:05;17.40;99.90
15036;DHT22;7615;48.574;13.474;2023-08-01T01:30:34;17.40;99.90
15036;DHT22;7615;48.574;13.474;2023-08-01T01:33:02;17.50;99.90
15036;DHT22;7615;48.574;13.474;2023-08-01T01:35:29;17.60;99.90
15036;DHT22;7615;48.574;13.474;2023-08-01T01:37:57;17.70;99.90
15036;DHT22;7615;48.574;13.474;2023-08-01T01:40:29;17.80;99.90
15036;DHT22;7615;48.574;13.474;2023-08-01T01:42:56;17.60;99.90
15036;DHT22;7615;48.574;13.474;2023-08-01T01:45:22;17.50;99.90
15036;DHT22;7615;48.574;13.474;2023-08-01T01:47:49;17.30;99.90
15036;DHT22;7615;48.574;13.474;2023-08-01T01:50:16;17.40;99.90
15036;DHT22;7615;48.574;13.474;2023-08-01T01:52:43;17.30;99.90
15036;DHT22;7615;48.574;13.474;2023-08-01T01:55:11;17.30;99.90
15036;DHT22;7615;48.574;13.474;2023-08-01T01:57:38;17.20;99.90
15036;DHT22;7615;48.574;13.474;2023-08-01T02:00:06;17.10;99.90
15036;DHT22;7615;48.574;13.474;2023-08-01T02:02:35;17.20;99.90
15036;DHT22;7615;48.574;13.474;2023-08-01T02:05:02;17.20;99.90
15036;DHT22;7615;48.574;13.474;2023-08-01T02:07:30;17.20;99.90
15036;DHT22;7615;48.574;13.474;2023-08-01T02:09:59;17.20;99.90
15036;DHT22;7615;48.574;13.474;2023-08-01T02:12:27;17.30;99.90
15036;DHT22;7615;48.574;13.474;2023-08-01T02:14:57;17.10;99.90
15036;DHT22;7615;48.574;13.474;2023-08-01T02:17:23;17.30;99.90
15036;DHT22;7615;48.574;13.474;2023-08-01T02:19:50;17.20;99.90
15036;DHT22;7615;48.574;13.474;2023-08-01T02:22:17;17.40;99.90
15036;DHT22;7615;48.574;13.474;2023-08-01T02:24:44;17.30;99.90
15036;DHT22;7615;48.574;13.474;2023-08-01T02:27:11;17.40;99.90
15036;DHT22;7615;48.574;13.474;2023-08-01T02:29:39;17.10;99.90
15036;DHT22;7615;48.574;13.474;2023-08-01T02:32:06;17.00;99.90
15036;DHT22;7615;48.574;13.474;2023-08-01T02:34:33;17.10;99.90
15036;DHT22;7615;48.574;13.474;2023-08-01T02:37:00;17.10;99.90
15036;DHT22;7615;48.574;13.474;2023-08-01T02:39:27;17.20;99.90
15036;DHT22;7615;48.574;13.474;2023-08-01T02:41:54;17.30;99.90
15036;DHT22;7615;48.574;13.474;2023-08-01T02:44:21;17.20;99.90
15036;DHT22;7615;48.574;13.474;2023-08-01T02:46:49;17.20;99.90
15036;DHT22;7615;48.574;13.474;2023-08-01T02:49:16;17.10;99.90
15036;DHT22;7615;48.574;13.474;2023-08-01T02:51:43;17.00;99.90
15036;DHT22;7615;48.574;13.474;2023-08-01T02:54:10;17.00;99.90
15036;DHT22;7615;48.574;13.474;2023-08-01T02:56:37;16.90;99.90
15036;DHT22;7615;48.574;13.474;2023-08-01T02:59:06;17.10;99.90
15036;DHT22;7615;48.574;13.474;2023-08-01T03:01:34;17.10;99.90
15036;DHT22;7615;48.574;13.474;2023-08-01T03:04:02;17.10;99.90
15036;DHT22;7615;48.574;13.474;2023-08-01T03:06:29;17.00;99.90
15036;DHT22;7615;48.574;13.474;2023-08-01T03:08:56;17.10;99.90
15036;DHT22;7615;48.574;13.474;2023-08-01T03:11:23;17.40;99.90
15036;DHT22;7615;48.574;13.474;2023-08-01T03:13:51;17.40;99.90
15036;DHT22;7615;48.574;13.474;2023-08-01T03:16:18;17.00;99.90
15036;DHT22;7615;48.574;13.474;2023-08-01T03:18:44;17.20;99.90
15036;DHT22;7615;48.574;13.474;2023-08-01T03:21:13;17.00;99.90
15036;DHT22;7615;48.574;13.474;2023-08-01T03:23:40;17.10;99.90
15036;DHT22;7615;48.574;13.474;2023-08-01T03:26:06;17.20;99.90
15036;DHT22;7615;48.574;13.474;2023-08-01T03:28:33;17.60;99.90
15036;DHT22;7615;48.574;13.474;2023-08-01T03:31:00;17.20;99.90
15036;DHT22;7615;48.574;13.474;2023-08-01T03:33:28;17.20;99.90
15036;DHT22;7615;48.574;13.474;2023-08-01T03:35:54;17.50;99.90
15036;DHT22;7615;48.574;13.474;2023-08-01T03:38:23;17.20;99.90
15036;DHT22;7615;48.574;13.474;2023-08-01T03:40:49;17.20;99.90
15036;DHT22;7615;48.574;13.474;2023-08-01T03:43:16;17.20;99.90
15036;DHT22;7615;48.574;13.474;2023-08-01T03:45:48;17.10;99.90
15036;DHT22;7615;48.574;13.474;2023-08-01T03:48:15;17.00;99.90
15036;DHT22;7615;48.574;13.474;2023-08-01T03:50:42;17.10;99.90
15036;DHT22;7615;48.574;13.474;2023-08-01T03:53:09;17.10;99.90
15036;DHT22;7615;48.574;13.474;2023-08-01T03:55:37;17.10;99.90
15036;DHT22;7615;48.574;13.474;2023-08-01T03:58:04;17.20;99.90
15036;DHT22;7615;48.574;13.474;2023-08-01T04:00:31;17.30;99.90
15036;DHT22;7615;48.574;13.474;2023-08-01T04:02:58;17.30;99.90
15036;DHT22;7615;48.574;13.474;2023-08-01T04:05:25;17.60;99.90
15036;DHT22;7615;48.574;13.474;2023-08-01T04:07:52;17.50;99.90
15036;DHT22;7615;48.574;13.474;2023-08-01T04:10:20;17.40;99.90
15036;DHT22;7615;48.574;13.474;2023-08-01T04:12:48;17.40;99.90
15036;DHT22;7615;48.574;13.474;2023-08-01T04:15:15;17.30;99.90
15036;DHT22;7615;48.574;13.474;2023-08-01T04:17:42;17.30;99.90
15036;DHT22;7615;48.574;13.474;2023-08-01T04:20:09;17.20;99.90
15036;DHT22;7615;48.574;13.474;2023-08-01T04:22:36;17.20;99.90
15036;DHT22;7615;48.574;13.474;2023-08-01T04:25:04;17.10;99.90
15036;DHT22;7615;48.574;13.474;2023-08-01T04:27:30;17.10;99.90
15036;DHT22;7615;48.574;13.474;2023-08-01T04:30:00;17.20;99.90
15036;DHT22;7615;48.574;13.474;2023-08-01T04:32:26;17.20;99.90
15036;DHT22;7615;48.574;13.474;2023-08-01T04:34:53;17.30;99.90
15036;DHT22;7615;48.574;13.474;2023-08-01T04:37:20;17.30;99.90
15036;DHT22;7615;48.574;13.474;2023-08-01T04:39:48;17.30;99.90
15036;DHT22;7615;48.574;13.474;2023-08-01T04:42:15;17.40;99.90
15036;DHT22;7615;48.574;13.474;2023-08-01T04:44:42;17.40;99.90
15036;DHT22;7615;48.574;13.474;2023-08-01T04:47:10;17.20;99.90
15036;DHT22;7615;48.574;13.474;2023-08-01T04:49:37;17.30;99.90
15036;DHT22;7615;48.574;13.474;2023-08-01T04:52:05;17.60;99.90
15036;DHT22;7615;48.574;13.474;2023-08-01T04:54:32;17.60;99.90
15036;DHT22;7615;48.574;13.474;2023-08-01T04:56:59;17.60;99.90
15036;DHT22;7615;48.574;13.474;2023-08-01T04:59:26;17.70;99.90
15036;DHT22;7615;48.574;13.474;2023-08-01T05:01:52;17.90;99.90
15036;DHT22;7615;48.574;13.474;2023-08-01T05:04:20;17.90;99.90
15036;DHT22;7615;48.574;13.474;2023-08-01T05:06:47;17.70;99.90
15036;DHT22;7615;48.574;13.474;2023-08-01T05:09:14;17.70;99.90
15036;DHT22;7615;48.574;13.474;2023-08-01T05:11:41;17.70;99.90
15036;DHT22;7615;48.574;13.474;2023-08-01T05:14:08;17.70;99.90
15036;DHT22;7615;48.574;13.474;2023-08-01T05:16:34;17.80;99.90
15036;DHT22;7615;48.574;13.474;2023-08-01T05:19:01;17.80;99.90
15036;DHT22;7615;48.574;13.474;2023-08-01T05:21:29;17.80;99.90
15036;DHT22;7615;48.574;13.474;2023-08-01T05:23:56;17.80;99.90
15036;DHT22;7615;48.574;13.474;2023-08-01T05:26:23;17.90;99.90
15036;DHT22;7615;48.574;13.474;2023-08-01T05:28:50;17.90;99.90
15036;DHT22;7615;48.574;13.474;2023-08-01T05:31:16;17.70;99.90
15036;DHT22;7615;48.574;13.474;2023-08-01T05:33:43;17.80;99.90
15036;DHT22;7615;48.574;13.474;2023-08-01T05:36:10;17.70;99.90
15036;DHT22;7615;48.574;13.474;2023-08-01T05:38:38;17.70;99.90
15036;DHT22;7615;48.574;13.474;2023-08-01T05:41:05;17.60;99.90
15036;DHT22;7615;48.574;13.474;2023-08-01T05:43:32;17.60;99.90
15036;DHT22;7615;48.574;13.474;2023-08-01T05:45:58;17.60;99.90
15036;DHT22;7615;48.574;13.474;2023-08-01T05:48:25;17.60;99.90
15036;DHT22;7615;48.574;13.474;2023-08-01T05:50:52;17.50;99.90
15036;DHT22;7615;48.574;13.474;2023-08-01T05:53:20;17.50;99.90
15036;DHT22;7615;48.574;13.474;2023-08-01T05:55:49;17.70;99.90
15036;DHT22;7615;48.574;13.474;2023-08-01T05:58:16;17.50;99.90
15036;DHT22;7615;48.574;13.474;2023-08-01T06:00:46;17.60;99.90
15036;DHT22;7615;48.574;13.474;2023-08-01T06:03:13;17.70;99.90
15036;DHT22;7615;48.574;13.474;2023-08-01T06:05:39;17.70;99.90
15036;DHT22;7615;48.574;13.474;2023-08-01T06:08:07;17.70;99.90
15036;DHT22;7615;48.574;13.474;2023-08-01T06:10:41;17.40;99.90
15036;DHT22;7615;48.574;13.474;2023-08-01T06:13:16;17.70;99.90
15036;DHT22;7615;48.574;13.474;2023-08-01T06:15:43;17.60;99.90
15036;DHT22;7615;48.574;13.474;2023-08-01T06:18:10;17.80;99.90
15036;DHT22;7615;48.574;13.474;2023-08-01T06:20:37;17.60;99.90
15036;DHT22;7615;48.574;13.474;2023-08-01T06:23:04;17.70;99.90
15036;DHT22;7615;48.574;13.474;2023-08-01T06:25:31;17.90;99.90
15036;DHT22;7615;48.574;13.474;2023-08-01T06:27:57;18.10;99.90
15036;DHT22;7615;48.574;13.474;2023-08-01T06:30:28;18.00;99.90
15036;DHT22;7615;48.574;13.474;2023-08-01T06:32:55;18.00;99.90
15036;DHT22;7615;48.574;13.474;2023-08-01T06:35:22;18.00;99.90
15036;DHT22;7615;48.574;13.474;2023-08-01T06:37:48;18.00;99.90
15036;DHT22;7615;48.574;13.474;2023-08-01T06:40:15;18.10;99.90
15036;DHT22;7615;48.574;13.474;2023-08-01T06:42:42;18.00;99.90
15036;DHT22;7615;48.574;13.474;2023-08-01T06:45:09;17.90;99.90
15036;DHT22;7615;48.574;13.474;2023-08-01T06:47:37;18.10;99.90
15036;DHT22;7615;48.574;13.474;2023-08-01T06:50:05;18.10;99.90
15036;DHT22;7615;48.574;13.474;2023-08-01T06:52:32;17.60;99.90
15036;DHT22;7615;48.574;13.474;2023-08-01T06:54:59;18.10;99.90
15036;DHT22;7615;48.574;13.474;2023-08-01T06:57:27;18.10;99.90
15036;DHT22;7615;48.574;13.474;2023-08-01T06:59:54;18.10;99.90
15036;DHT22;7615;48.574;13.474;2023-08-01T07:02:20;18.10;99.90
15036;DHT22;7615;48.574;13.474;2023-08-01T07:04:49;18.10;99.90
15036;DHT22;7615;48.574;13.474;2023-08-01T07:07:16;18.00;99.90
15036;DHT22;7615;48.574;13.474;2023-08-01T07:09:42;18.10;99.90
15036;DHT22;7615;48.574;13.474;2023-08-01T07:12:09;18.20;99.90
15036;DHT22;7615;48.574;13.474;2023-08-01T07:14:36;18.20;99.90
15036;DHT22;7615;48.574;13.474;2023-08-01T07:17:03;18.20;99.90
15036;DHT22;7615;48.574;13.474;2023-08-01T07:19:31;18.20;99.90
15036;DHT22;7615;48.574;13.474;2023-08-01T07:21:59;18.20;99.90
15036;DHT22;7615;48.574;13.474;2023-08-01T07:24:26;18.30;99.90
15036;DHT22;7615;48.574;13.474;2023-08-01T07:26:53;18.20;99.90
15036;DHT22;7615;48.574;13.474;2023-08-01T07:29:19;18.30;99.90
15036;DHT22;7615;48.574;13.474;2023-08-01T07:31:46;18.30;99.90
15036;DHT22;7615;48.574;13.474;2023-08-01T07:34:13;18.20;99.90
15036;DHT22;7615;48.574;13.474;2023-08-01T07:36:40;18.30;99.90
15036;DHT22;7615;48.574;13.474;2023-08-01T07:39:08;18.30;99.90
15036;DHT22;7615;48.574;13.474;2023-08-01T07:41:35;18.50;99.90
15036;DHT22;7615;48.574;13.474;2023-08-01T07:44:02;18.50;99.90
15036;DHT22;7615;48.574;13.474;2023-08-01T07:46:29;18.60;99.90
15036;DHT22;7615;48.574;13.474;2023-08-01T07:48:56;18.50;99.90
15036;DHT22;7615;48.574;13.474;2023-08-01T07:51:23;18.50;99.90
15036;DHT22;7615;48.574;13.474;2023-08-01T07:53:51;18.40;99.90
15036;DHT22;7615;48.574;13.474;2023-08-01T07:56:19;18.40;99.90
15036;DHT22;7615;48.574;13.474;2023-08-01T07:58:46;18.40;99.90
15036;DHT22;7615;48.574;13.474;2023-08-01T08:01:13;18.40;99.90
15036;DHT22;7615;48.574;13.474;2023-08-01T08:03:40;18.40;99.90
15036;DHT22;7615;48.574;13.474;2023-08-01T08:06:07;18.40;99.90
15036;DHT22;7615;48.574;13.474;2023-08-01T08:08:33;18.40;99.90
15036;DHT22;7615;48.574;13.474;2023-08-01T08:11:02;18.30;99.90
15036;DHT22;7615;48.574;13.474;2023-08-01T08:13:30;18.30;99.90
15036;DHT22;7615;48.574;13.474;2023-08-01T08:15:57;18.40;99.90
15036;DHT22;7615;48.574;13.474;2023-08-01T08:18:24;18.40;99.90
15036;DHT22;7615;48.574;13.474;2023-08-01T08:20:52;18.50;99.90
15036;DHT22;7615;48.574;13.474;2023-08-01T08:23:18;18.60;99.90
15036;DHT22;7615;48.574;13.474;2023-08-01T08:25:45;18.70;99.90
15036;DHT22;7615;48.574;13.474;2023-08-01T08:28:13;18.90;99.90
15036;DHT22;7615;48.574;13.474;2023-08-01T08:30:41;19.10;99.90
15036;DHT22;7615;48.574;13.474;2023-08-01T08:33:08;19.00;99.90
15036;DHT22;7615;48.574;13.474;2023-08-01T08:35:36;19.30;99.90
15036;DHT22;7615;48.574;13.474;2023-08-01T08:38:03;19.10;99.90
15036;DHT22;7615;48.574;13.474;2023-08-01T08:40:31;19.30;99.90
15036;DHT22;7615;48.574;13.474;2023-08-01T08:43:01;19.20;99.90
15036;DHT22;7615;48.574;13.474;2023-08-01T08:45:31;19.30;99.90
15036;DHT22;7615;48.574;13.474;2023-08-01T08:48:02;19.50;99.90
15036;DHT22;7615;48.574;13.474;2023-08-01T08:50:35;19.60;99.90
15036;DHT22;7615;48.574;13.474;2023-08-01T08:53:03;19.70;99.90
15036;DHT22;7615;48.574;13.474;2023-08-01T08:55:30;19.80;99.90
15036;DHT22;7615;48.574;13.474;2023-08-01T08:57:59;19.80;99.90
15036;DHT22;7615;48.574;13.474;2023-08-01T09:00:27;19.90;99.90
15036;DHT22;7615;48.574;13.474;2023-08-01T09:02:54;20.10;99.90
15036;DHT22;7615;48.574;13.474;2023-08-01T09:05:27;20.20;99.90
15036;DHT22;7615;48.574;13.474;2023-08-01T09:07:56;20.60;99.90
15036;DHT22;7615;48.574;13.474;2023-08-01T09:10:23;21.00;99.90
15036;DHT22;7615;48.574;13.474;2023-08-01T09:12:50;21.20;99.90
15036;DHT22;7615;48.574;13.474;2023-08-01T09:15:17;21.50;99.90
15036;DHT22;7615;48.574;13.474;2023-08-01T09:17:49;21.50;99.90
15036;DHT22;7615;48.574;13.474;2023-08-01T09:20:16;21.50;99.90
15036;DHT22;7615;48.574;13.474;2023-08-01T09:22:46;21.30;99.90
15036;DHT22;7615;48.574;13.474;2023-08-01T09:25:13;21.50;99.90
15036;DHT22;7615;48.574;13.474;2023-08-01T09:27:41;21.40;99.90
15036;DHT22;7615;48.574;13.474;2023-08-01T09:30:10;21.50;99.90
15036;DHT22;7615;48.574;13.474;2023-08-01T09:32:39;21.40;99.90
15036;DHT22;7615;48.574;13.474;2023-08-01T09:35:06;21.30;99.90
15036;DHT22;7615;48.574;13.474;2023-08-01T09:37:40;21.10;99.90
15036;DHT22;7615;48.574;13.474;2023-08-01T09:40:10;21.10;99.90
15036;DHT22;7615;48.574;13.474;2023-08-01T09:42:40;21.10;99.90
15036;DHT22;7615;48.574;13.474;2023-08-01T09:45:12;21.30;99.90
15036;DHT22;7615;48.574;13.474;2023-08-01T09:47:40;21.50;99.90
15036;DHT22;7615;48.574;13.474;2023-08-01T12:48:15;18.30;99.90
15036;DHT22;7615;48.574;13.474;2023-08-01T12:50:45;18.20;99.90
15036;DHT22;7615;48.574;13.474;2023-08-01T12:53:12;17.90;99.90
15036;DHT22;7615;48.574;13.474;2023-08-01T12:55:39;17.60;99.90
15036;DHT22;7615;48.574;13.474;2023-08-01T12:58:08;17.90;99.90
15036;DHT22;7615;48.574;13.474;2023-08-01T13:00:35;17.80;99.90
15036;DHT22;7615;48.574;13.474;2023-08-01T13:03:02;17.80;99.90
15036;DHT22;7615;48.574;13.474;2023-08-01T13:05:29;17.80;99.90
15036;DHT22;7615;48.574;13.474;2023-08-01T13:07:57;17.80;99.90
15036;DHT22;7615;48.574;13.474;2023-08-01T13:10:24;17.90;99.90
15036;DHT22;7615;48.574;13.474;2023-08-01T13:12:51;17.70;99.90
15036;DHT22;7615;48.574;13.474;2023-08-01T13:15:18;17.80;99.90
15036;DHT22;7615;48.574;13.474;2023-08-01T13:17:45;18.10;99.90
15036;DHT22;7615;48.574;13.474;2023-08-01T13:20:11;18.20;99.90
15036;DHT22;7615;48.574;13.474;2023-08-01T13:22:38;18.40;99.90
15036;DHT22;7615;48.574;13.474;2023-08-01T13:25:07;18.40;99.90
15036;DHT22;7615;48.574;13.474;2023-08-01T13:27:34;18.60;99.90
15036;DHT22;7615;48.574;13.474;2023-08-01T13:30:02;18.70;99.90
15036;DHT22;7615;48.574;13.474;2023-08-01T13:32:29;18.80;99.90
15036;DHT22;7615;48.574;13.474;2023-08-01T13:34:56;18.90;99.90
15036;DHT22;7615;48.574;13.474;2023-08-01T13:37:22;18.90;99.90
15036;DHT22;7615;48.574;13.474;2023-08-01T13:39:49;18.90;99.90
15036;DHT22;7615;48.574;13.474;2023-08-01T13:42:17;19.00;99.90
15036;DHT22;7615;48.574;13.474;2023-08-01T13:44:44;19.20;99.90
15036;DHT22;7615;48.574;13.474;2023-08-01T13:47:11;19.40;99.90
15036;DHT22;7615;48.574;13.474;2023-08-01T13:49:38;19.60;99.90
15036;DHT22;7615;48.574;13.474;2023-08-01T13:52:05;19.60;99.90
15036;DHT22;7615;48.574;13.474;2023-08-01T13:54:32;19.40;99.90
15036;DHT22;7615;48.574;13.474;2023-08-01T13:56:59;19.30;99.90
15036;DHT22;7615;48.574;13.474;2023-08-01T13:59:28;19.30;99.90
15036;DHT22;7615;48.574;13.474;2023-08-01T14:01:54;19.20;99.90
15036;DHT22;7615;48.574;13.474;2023-08-01T14:04:21;19.30;99.90
15036;DHT22;7615;48.574;13.474;2023-08-01T14:06:48;19.40;99.90
15036;DHT22;7615;48.574;13.474;2023-08-01T14:09:15;19.90;99.90
15036;DHT22;7615;48.574;13.474;2023-08-01T14:11:42;20.10;99.90
15036;DHT22;7615;48.574;13.474;2023-08-01T14:14:09;20.30;99.90
15036;DHT22;7615;48.574;13.474;2023-08-01T14:16:37;20.30;99.90
15036;DHT22;7615;48.574;13.474;2023-08-01T14:19:04;20.10;99.90
15036;DHT22;7615;48.574;13.474;2023-08-01T14:21:34;20.00;99.90
15036;DHT22;7615;48.574;13.474;2023-08-01T14:24:00;20.00;99.90
15036;DHT22;7615;48.574;13.474;2023-08-01T14:26:27;20.00;99.90
15036;DHT22;7615;48.574;13.474;2023-08-01T14:28:54;20.40;99.90
15036;DHT22;7615;48.574;13.474;2023-08-01T14:31:21;20.70;99.90
15036;DHT22;7615;48.574;13.474;2023-08-01T14:33:49;20.90;99.90
15036;DHT22;7615;48.574;13.474;2023-08-01T14:36:16;20.90;99.90
15036;DHT22;7615;48.574;13.474;2023-08-01T14:38:43;20.90;99.90
15036;DHT22;7615;48.574;13.474;2023-08-01T14:46:04;21.80;99.90
15036;DHT22;7615;48.574;13.474;2023-08-01T14:48:31;21.90;99.90
15036;DHT22;7615;48.574;13.474;2023-08-01T14:50:59;21.70;99.90
15036;DHT22;7615;48.574;13.474;2023-08-01T14:53:26;21.70;99.90
15036;DHT22;7615;48.574;13.474;2023-08-01T14:55:56;21.40;99.90
15036;DHT22;7615;48.574;13.474;2023-08-01T14:58:25;21.00;99.90
15036;DHT22;7615;48.574;13.474;2023-08-01T15:00:52;21.00;99.90
15036;DHT22;7615;48.574;13.474;2023-08-01T15:03:18;20.90;99.90
15036;DHT22;7615;48.574;13.474;2023-08-01T15:05:45;20.90;99.90
15036;DHT22;7615;48.574;13.474;2023-08-01T15:08:13;21.00;99.90
15036;DHT22;7615;48.574;13.474;2023-08-01T15:10:41;20.90;99.90
15036;DHT22;7615;48.574;13.474;2023-08-01T15:13:08;21.00;99.90
15036;DHT22;7615;48.574;13.474;2023-08-01T15:15:35;21.20;99.90
15036;DHT22;7615;48.574;13.474;2023-08-01T15:18:02;21.00;99.90
15036;DHT22;7615;48.574;13.474;2023-08-01T15:20:31;21.10;99.90
15036;DHT22;7615;48.574;13.474;2023-08-01T15:23:00;21.10;99.90
15036;DHT22;7615;48.574;13.474;2023-08-01T15:25:28;21.00;99.90
15036;DHT22;7615;48.574;13.474;2023-08-01T15:27:55;20.80;99.90
15036;DHT22;7615;48.574;13.474;2023-08-01T15:30:22;20.50;99.90
15036;DHT22;7615;48.574;13.474;2023-08-01T15:32:49;20.50;99.90
15036;DHT22;7615;48.574;13.474;2023-08-01T15:35:16;20.40;99.90
15036;DHT22;7615;48.574;13.474;2023-08-01T15:37:43;20.50;99.90
15036;DHT22;7615;48.574;13.474;2023-08-01T15:40:10;20.50;99.90
15036;DHT22;7615;48.574;13.474;2023-08-01T15:42:38;20.60;99.90
15036;DHT22;7615;48.574;13.474;2023-08-01T15:45:06;20.50;99.90
15036;DHT22;7615;48.574;13.474;2023-08-01T15:47:33;20.50;99.90
15036;DHT22;7615;48.574;13.474;2023-08-01T15:50:00;20.60;99.90
15036;DHT22;7615;48.574;13.474;2023-08-01T15:52:27;20.60;99.90
15036;DHT22;7615;48.574;13.474;2023-08-01T15:54:53;20.50;99.90
15036;DHT22;7615;48.574;13.474;2023-08-01T15:57:20;20.50;99.90
15036;DHT22;7615;48.574;13.474;2023-08-01T15:59:49;20.60;99.90
15036;DHT22;7615;48.574;13.474;2023-08-01T16:02:15;20.70;99.90
15036;DHT22;7615;48.574;13.474;2023-08-01T16:04:42;20.70;99.90
15036;DHT22;7615;48.574;13.474;2023-08-01T16:07:09;20.60;99.90
15036;DHT22;7615;48.574;13.474;2023-08-01T16:09:36;20.60;99.90
15036;DHT22;7615;48.574;13.474;2023-08-01T16:12:03;20.60;99.90
15036;DHT22;7615;48.574;13.474;2023-08-01T16:14:30;20.70;99.90
15036;DHT22;7615;48.574;13.474;2023-08-01T16:16:59;20.70;99.90
15036;DHT22;7615;48.574;13.474;2023-08-01T16:19:26;20.90;99.90
15036;DHT22;7615;48.574;13.474;2023-08-01T16:21:53;21.00;99.90
15036;DHT22;7615;48.574;13.474;2023-08-01T16:24:20;21.10;99.90
15036;DHT22;7615;48.574;13.474;2023-08-01T16:26:47;21.20;99.90
15036;DHT22;7615;48.574;13.474;2023-08-01T16:29:13;21.30;99.90
15036;DHT22;7615;48.574;13.474;2023-08-01T16:31:40;21.10;99.90
15036;DHT22;7615;48.574;13.474;2023-08-01T16:34:09;21.10;99.90
15036;DHT22;7615;48.574;13.474;2023-08-01T16:36:35;21.00;99.90
15036;DHT22;7615;48.574;13.474;2023-08-01T16:39:02;20.90;99.90
15036;DHT22;7615;48.574;13.474;2023-08-01T16:41:29;20.80;99.90
15036;DHT22;7615;48.574;13.474;2023-08-01T16:43:56;20.80;99.90
15036;DHT22;7615;48.574;13.474;2023-08-01T16:46:23;20.70;99.90
15036;DHT22;7615;48.574;13.474;2023-08-01T16:48:50;20.80;99.90
15036;DHT22;7615;48.574;13.474;2023-08-01T16:51:18;20.90;99.90
15036;DHT22;7615;48.574;13.474;2023-08-01T16:53:45;20.90;99.90
15036;DHT22;7615;48.574;13.474;2023-08-01T16:56:12;21.00;99.90
15036;DHT22;7615;48.574;13.474;2023-08-01T16:58:38;21.00;99.90
15036;DHT22;7615;48.574;13.474;2023-08-01T17:01:05;21.00;99.90
15036;DHT22;7615;48.574;13.474;2023-08-01T17:03:33;20.90;99.90
15036;DHT22;7615;48.574;13.474;2023-08-01T17:06:00;20.70;99.90
15036;DHT22;7615;48.574;13.474;2023-08-01T17:08:29;20.70;99.90
15036;DHT22;7615;48.574;13.474;2023-08-01T17:10:56;20.60;99.90
15036;DHT22;7615;48.574;13.474;2023-08-01T17:13:23;20.60;99.90
15036;DHT22;7615;48.574;13.474;2023-08-01T17:15:50;20.50;99.90
15036;DHT22;7615;48.574;13.474;2023-08-01T17:18:17;20.60;99.90
15036;DHT22;7615;48.574;13.474;2023-08-01T17:20:46;20.70;99.90
15036;DHT22;7615;48.574;13.474;2023-08-01T17:23:12;20.60;99.90
15036;DHT22;7615;48.574;13.474;2023-08-01T17:25:41;20.60;99.90
15036;DHT22;7615;48.574;13.474;2023-08-01T17:28:07;20.60;99.90
15036;DHT22;7615;48.574;13.474;2023-08-01T17:30:37;20.50;99.90
15036;DHT22;7615;48.574;13.474;2023-08-01T17:33:04;20.60;99.90
15036;DHT22;7615;48.574;13.474;2023-08-01T17:35:31;20.60;99.90
15036;DHT22;7615;48.574;13.474;2023-08-01T17:37:58;20.70;99.90
15036;DHT22;7615;48.574;13.474;2023-08-01T17:40:24;20.70;99.90
15036;DHT22;7615;48.574;13.474;2023-08-01T17:42:53;20.50;99.90
15036;DHT22;7615;48.574;13.474;2023-08-01T17:45:20;20.60;99.90
15036;DHT22;7615;48.574;13.474;2023-08-01T17:47:47;20.50;99.90
15036;DHT22;7615;48.574;13.474;2023-08-01T17:50:14;20.40;99.90
15036;DHT22;7615;48.574;13.474;2023-08-01T17:52:41;20.40;99.90
15036;DHT22;7615;48.574;13.474;2023-08-01T17:55:08;20.40;99.90
15036;DHT22;7615;48.574;13.474;2023-08-01T17:57:35;20.30;99.90
15036;DHT22;7615;48.574;13.474;2023-08-01T18:00:04;20.30;99.90
15036;DHT22;7615;48.574;13.474;2023-08-01T18:02:32;20.30;99.90
15036;DHT22;7615;48.574;13.474;2023-08-01T18:04:59;20.30;99.90
15036;DHT22;7615;48.574;13.474;2023-08-01T18:07:26;20.30;99.90
15036;DHT22;7615;48.574;13.474;2023-08-01T18:09:53;20.30;99.90
15036;DHT22;7615;48.574;13.474;2023-08-01T18:12:20;20.30;99.90
15036;DHT22;7615;48.574;13.474;2023-08-01T18:14:46;20.30;99.90
15036;DHT22;7615;48.574;13.474;2023-08-01T18:17:14;20.10;99.90
15036;DHT22;7615;48.574;13.474;2023-08-01T18:19:42;20.10;99.90
15036;DHT22;7615;48.574;13.474;2023-08-01T18:22:09;19.90;99.90
15036;DHT22;7615;48.574;13.474;2023-08-01T18:24:36;19.90;99.90
15036;DHT22;7615;48.574;13.474;2023-08-01T18:27:03;19.80;99.90
15036;DHT22;7615;48.574;13.474;2023-08-01T18:29:30;19.70;99.90
15036;DHT22;7615;48.574;13.474;2023-08-01T18:31:57;19.60;99.90
15036;DHT22;7615;48.574;13.474;2023-08-01T18:34:25;19.50;99.90
15036;DHT22;7615;48.574;13.474;2023-08-01T18:36:53;19.50;99.90